Time;durP1;ratioP1;P1;durP2;ratioP2;P2;SDS_P1;SDS_P2;PMS_P1;PMS_P2;Temp;Humidity;BMP_temperature;BMP_pressure;BME280_temperature;BME280_humidity;BME280_pressure;Samples;Min_cycle;Max_cycle;Signal;HPM_P1;HPM_P2
2024/01/24 00:01:23;;;;;;;;;;;19.70;44.50;;;;;;5057246;28;19927;-55
2024/01/24 00:03:50;;;;;;;;;;;19.70;44.50;;;;;;5057545;28;20031;-56
2024/01/24 00:06:16;;;;;;;;;;;19.70;44.50;;;;;;5064406;28;19966;-57
2024/01/24 00:08:43;;;;;;;;;;;19.70;44.50;;;;;;5076701;28;19927;-56
2024/01/24 00:11:11;;;;;;;;;;;19.70;44.50;;;;;;5058185;28;19920;-56
2024/01/24 00:13:38;;;;;;;;;;;19.70;44.50;;;;;;5073880;28;19920;-55
2024/01/24 00:16:05;;;;;;;;;;;19.70;44.50;;;;;;5061927;28;20011;-55
2024/01/24 00:18:32;;;;;;;;;;;19.70;44.50;;;;;;5056156;28;19920;-57
2024/01/24 00:20:59;;;;;;;;;;;19.70;44.60;;;;;;5058366;28;19920;-55
2024/01/24 00:23:25;;;;;;;;;;;19.70;44.60;;;;;;5075575;28;19924;-54
2024/01/24 00:25:52;;;;;;;;;;;19.70;44.60;;;;;;5075632;28;19966;-56
2024/01/24 00:28:21;;;;;;;;;;;19.70;44.60;;;;;;5056631;28;19925;-56
2024/01/24 00:30:47;;;;;;;;;;;19.70;44.60;;;;;;5058703;28;19926;-56
2024/01/24 00:33:15;;;;;;;;;;;19.70;44.60;;;;;;5077320;28;19920;-55
2024/01/24 00:35:42;;;;;;;;;;;19.70;44.60;;;;;;5063098;28;19920;-56
2024/01/24 00:38:08;;;;;;;;;;;19.70;44.60;;;;;;5076622;28;19924;-55
2024/01/24 00:40:35;;;;;;;;;;;19.70;44.70;;;;;;5057533;28;19925;-56
2024/01/24 00:43:02;;;;;;;;;;;19.70;44.70;;;;;;5059543;28;19921;-55
2024/01/24 00:45:30;;;;;;;;;;;19.70;44.70;;;;;;5059756;28;19927;-55
2024/01/24 00:48:00;;;;;;;;;;;19.70;44.70;;;;;;5057735;28;20002;-56
2024/01/24 00:50:26;;;;;;;;;;;19.70;44.70;;;;;;5059372;28;19920;-56
2024/01/24 00:52:55;;;;;;;;;;;19.70;44.70;;;;;;5056376;28;19974;-57
2024/01/24 00:55:22;;;;;;;;;;;19.70;44.70;;;;;;5056591;28;19928;-57
2024/01/24 00:57:49;;;;;;;;;;;19.70;44.70;;;;;;5057921;28;19924;-56
2024/01/24 01:00:16;;;;;;;;;;;19.70;44.70;;;;;;5055379;28;19974;-56
2024/01/24 01:02:45;;;;;;;;;;;19.70;44.70;;;;;;5058166;28;19921;-55
2024/01/24 01:05:14;;;;;;;;;;;19.70;44.70;;;;;;5048052;28;19935;-56
2024/01/24 01:07:44;;;;;;;;;;;19.70;44.70;;;;;;5056093;28;19921;-57
2024/01/24 01:10:11;;;;;;;;;;;19.70;44.80;;;;;;5074936;28;19921;-58
2024/01/24 01:12:37;;;;;;;;;;;19.70;44.80;;;;;;5075361;28;19962;-56
2024/01/24 01:15:05;;;;;;;;;;;19.70;44.80;;;;;;5086555;28;20255;-56
2024/01/24 01:17:31;;;;;;;;;;;19.70;44.80;;;;;;5057390;28;19970;-56
2024/01/24 01:20:00;;;;;;;;;;;19.70;44.80;;;;;;5057440;28;19927;-56
2024/01/24 01:22:26;;;;;;;;;;;19.70;44.80;;;;;;5038952;28;19920;-57
2024/01/24 01:24:53;;;;;;;;;;;19.70;44.80;;;;;;5050473;28;19974;-56
2024/01/24 01:27:20;;;;;;;;;;;19.70;44.80;;;;;;5056115;28;19921;-56
2024/01/24 01:29:47;;;;;;;;;;;19.70;44.80;;;;;;5062546;28;19920;-57
2024/01/24 01:32:13;;;;;;;;;;;19.70;44.80;;;;;;5073443;28;19924;-56
2024/01/24 01:34:42;;;;;;;;;;;19.70;44.80;;;;;;5040279;28;20022;-56
2024/01/24 01:37:13;;;;;;;;;;;19.70;44.80;;;;;;5038915;28;19920;-57
2024/01/24 01:39:40;;;;;;;;;;;19.70;44.80;;;;;;5056168;28;20043;-56
2024/01/24 01:42:07;;;;;;;;;;;19.70;44.80;;;;;;5053693;28;19928;-57
2024/01/24 01:44:34;;;;;;;;;;;19.70;44.80;;;;;;5054854;28;19928;-57
2024/01/24 01:47:01;;;;;;;;;;;19.70;44.90;;;;;;5038247;28;19921;-56
2024/01/24 01:49:28;;;;;;;;;;;19.70;44.90;;;;;;5039063;28;19935;-55
2024/01/24 01:51:57;;;;;;;;;;;19.70;44.90;;;;;;5042865;28;19943;-56
2024/01/24 01:54:27;;;;;;;;;;;19.70;44.90;;;;;;5073007;28;20010;-57
2024/01/24 01:56:53;;;;;;;;;;;19.70;44.90;;;;;;5074439;28;19921;-55
2024/01/24 01:59:20;;;;;;;;;;;19.70;44.90;;;;;;5065482;28;19921;-56
2024/01/24 02:01:47;;;;;;;;;;;19.70;44.90;;;;;;5062102;28;19927;-56
2024/01/24 02:04:19;;;;;;;;;;;19.70;44.90;;;;;;5056637;28;20261;-56
2024/01/24 02:06:46;;;;;;;;;;;19.70;44.90;;;;;;5075622;28;19924;-56
2024/01/24 02:09:13;;;;;;;;;;;19.70;44.90;;;;;;5055896;28;19920;-57
2024/01/24 02:11:41;;;;;;;;;;;19.70;44.90;;;;;;5075128;28;19921;-56
2024/01/24 02:14:08;;;;;;;;;;;19.70;45.00;;;;;;5073715;28;19921;-56
2024/01/24 02:16:35;;;;;;;;;;;19.70;45.00;;;;;;5075919;28;19924;-56
2024/01/24 02:19:04;;;;;;;;;;;19.70;45.00;;;;;;5056418;28;20020;-56
2024/01/24 02:21:31;;;;;;;;;;;19.70;45.00;;;;;;5075201;28;19973;-56
2024/01/24 02:23:58;;;;;;;;;;;19.70;45.00;;;;;;5075320;28;19966;-57
2024/01/24 02:26:26;;;;;;;;;;;19.70;45.00;;;;;;5056140;28;19921;-55
2024/01/24 02:28:53;;;;;;;;;;;19.70;45.00;;;;;;5054811;28;19951;-58
2024/01/24 02:31:20;;;;;;;;;;;19.70;45.00;;;;;;5055033;28;19967;-56
2024/01/24 02:33:47;;;;;;;;;;;19.70;45.00;;;;;;5053950;28;19964;-56
2024/01/24 02:36:14;;;;;;;;;;;19.70;45.10;;;;;;5054607;28;19971;-56
2024/01/24 02:38:41;;;;;;;;;;;19.70;45.10;;;;;;5035880;28;19928;-56
2024/01/24 02:41:08;;;;;;;;;;;19.70;45.10;;;;;;5055216;28;19921;-57
2024/01/24 02:43:36;;;;;;;;;;;19.80;45.20;;;;;;5037421;28;19963;-56
2024/01/24 02:46:05;;;;;;;;;;;19.70;45.10;;;;;;5055660;28;19921;-56
2024/01/24 02:48:31;;;;;;;;;;;19.70;45.10;;;;;;5058075;28;19921;-56
2024/01/24 02:50:58;;;;;;;;;;;19.80;45.20;;;;;;5055554;28;19927;-55
2024/01/24 02:53:25;;;;;;;;;;;19.70;45.10;;;;;;5056719;28;19928;-56
2024/01/24 02:55:51;;;;;;;;;;;19.70;45.10;;;;;;5071467;28;19920;-57
2024/01/24 02:58:18;;;;;;;;;;;19.80;45.20;;;;;;5073339;28;19920;-55
2024/01/24 03:00:46;;;;;;;;;;;19.70;45.10;;;;;;5063423;28;19971;-57
2024/01/24 03:03:15;;;;;;;;;;;19.70;45.20;;;;;;5035937;28;19966;-56
2024/01/24 03:05:42;;;;;;;;;;;19.80;45.20;;;;;;5049045;28;19920;-57
2024/01/24 03:08:08;;;;;;;;;;;19.70;45.20;;;;;;5073212;28;19924;-56
2024/01/24 03:10:35;;;;;;;;;;;19.70;45.20;;;;;;5074038;28;19928;-57
2024/01/24 03:13:02;;;;;;;;;;;19.80;45.30;;;;;;5074398;28;19921;-57
2024/01/24 03:15:29;;;;;;;;;;;19.70;45.20;;;;;;5072440;28;19968;-56
2024/01/24 03:17:57;;;;;;;;;;;19.70;45.20;;;;;;5057558;28;19935;-57
2024/01/24 03:20:23;;;;;;;;;;;19.70;45.20;;;;;;5055387;28;20043;-57
2024/01/24 03:22:50;;;;;;;;;;;19.70;45.20;;;;;;5054862;28;19974;-57
2024/01/24 03:25:18;;;;;;;;;;;19.70;45.20;;;;;;5054667;28;19924;-57
2024/01/24 03:27:45;;;;;;;;;;;19.70;45.20;;;;;;5056778;28;20246;-57
2024/01/24 03:30:12;;;;;;;;;;;19.70;45.20;;;;;;5072800;28;19920;-57
2024/01/24 03:32:39;;;;;;;;;;;19.70;45.20;;;;;;5054826;28;19920;-56
2024/01/24 03:35:09;;;;;;;;;;;19.70;45.20;;;;;;5055180;28;19970;-56
2024/01/24 03:37:36;;;;;;;;;;;19.70;45.30;;;;;;5073446;28;19921;-56
2024/01/24 03:40:05;;;;;;;;;;;19.70;45.30;;;;;;5072124;28;19921;-57
2024/01/24 03:42:32;;;;;;;;;;;19.80;45.40;;;;;;5051835;28;19920;-56
2024/01/24 03:44:59;;;;;;;;;;;19.70;45.30;;;;;;5056658;28;19928;-56
2024/01/24 03:47:25;;;;;;;;;;;19.80;45.40;;;;;;5072752;28;19994;-56
2024/01/24 03:49:52;;;;;;;;;;;19.70;45.30;;;;;;5084552;28;19920;-56
2024/01/24 03:52:22;;;;;;;;;;;19.70;45.30;;;;;;5071070;28;20205;-56
2024/01/24 03:54:49;;;;;;;;;;;19.80;45.40;;;;;;5072112;28;19982;-57
2024/01/24 03:57:15;;;;;;;;;;;19.70;45.30;;;;;;5072527;28;19920;-57
2024/01/24 03:59:42;;;;;;;;;;;19.70;45.30;;;;;;5054295;28;19920;-57
2024/01/24 04:02:09;;;;;;;;;;;19.70;45.30;;;;;;5074978;28;19920;-57
2024/01/24 04:04:35;;;;;;;;;;;19.80;45.40;;;;;;5051563;28;19921;-56
2024/01/24 04:07:03;;;;;;;;;;;19.80;45.40;;;;;;5040173;28;19927;-56
2024/01/24 04:09:31;;;;;;;;;;;19.80;45.40;;;;;;5040364;28;19943;-56
2024/01/24 04:11:57;;;;;;;;;;;19.70;45.40;;;;;;5040032;28;19943;-56
2024/01/24 04:14:24;;;;;;;;;;;19.80;45.40;;;;;;5060051;28;19921;-57
2024/01/24 04:16:51;;;;;;;;;;;19.70;45.40;;;;;;5060211;28;20002;-56
2024/01/24 04:19:17;;;;;;;;;;;19.80;46.10;;;;;;5065248;28;19927;-57
2024/01/24 04:21:44;;;;;;;;;;;19.80;45.50;;;;;;5077364;28;19927;-55
2024/01/24 04:24:13;;;;;;;;;;;19.70;45.40;;;;;;5056933;28;19927;-56
2024/01/24 04:26:42;;;;;;;;;;;19.70;45.40;;;;;;5042546;28;19921;-56
2024/01/24 04:29:09;;;;;;;;;;;19.70;45.40;;;;;;5076677;28;20411;-55
2024/01/24 04:31:35;;;;;;;;;;;19.80;45.50;;;;;;5074660;28;19921;-56
2024/01/24 04:34:02;;;;;;;;;;;19.70;45.40;;;;;;5057780;28;19925;-56
2024/01/24 04:36:30;;;;;;;;;;;19.70;45.40;;;;;;5075794;28;19927;-55
2024/01/24 04:38:57;;;;;;;;;;;19.80;45.60;;;;;;5060257;28;19974;-51
2024/01/24 04:41:23;;;;;;;;;;;19.70;45.40;;;;;;5052544;28;19924;-51
2024/01/24 04:43:54;;;;;;;;;;;19.70;45.40;;;;;;5076452;28;19920;-54
2024/01/24 04:46:22;;;;;;;;;;;19.80;45.60;;;;;;5055847;28;19921;-54
2024/01/24 04:48:49;;;;;;;;;;;19.70;45.50;;;;;;5074925;28;19959;-55
2024/01/24 04:51:16;;;;;;;;;;;19.70;45.50;;;;;;5059998;28;19942;-51
2024/01/24 04:53:42;;;;;;;;;;;19.70;45.50;;;;;;5064742;28;19921;-52
2024/01/24 04:56:09;;;;;;;;;;;19.80;45.60;;;;;;5093697;28;19920;-55
2024/01/24 04:58:36;;;;;;;;;;;19.80;45.60;;;;;;5093176;28;19920;-55
2024/01/24 05:01:04;;;;;;;;;;;19.70;45.50;;;;;;5093157;28;19928;-53
2024/01/24 05:03:31;;;;;;;;;;;19.80;45.60;;;;;;5075874;28;19950;-53
2024/01/24 05:05:57;;;;;;;;;;;19.70;45.50;;;;;;5077686;28;19924;-53
2024/01/24 05:08:24;;;;;;;;;;;19.80;45.60;;;;;;5059418;28;19927;-54
2024/01/24 05:10:51;;;;;;;;;;;19.80;46.20;;;;;;5073740;28;19920;-54
2024/01/24 05:13:21;;;;;;;;;;;19.80;45.60;;;;;;5057363;28;19927;-54
2024/01/24 05:15:49;;;;;;;;;;;19.80;45.60;;;;;;5052597;28;19921;-51
2024/01/24 05:18:18;;;;;;;;;;;19.80;45.60;;;;;;5074368;28;19920;-54
2024/01/24 05:20:45;;;;;;;;;;;19.80;45.60;;;;;;5059330;28;19924;-55
2024/01/24 05:23:11;;;;;;;;;;;19.70;45.50;;;;;;5059197;28;20304;-56
2024/01/24 05:25:39;;;;;;;;;;;19.70;45.50;;;;;;5076492;28;19928;-54
2024/01/24 05:28:08;;;;;;;;;;;19.80;45.60;;;;;;5076094;28;19920;-55
2024/01/24 05:30:34;;;;;;;;;;;19.80;45.60;;;;;;5056412;28;19959;-55
2024/01/24 05:33:01;;;;;;;;;;;19.80;45.60;;;;;;5058525;28;19942;-55
2024/01/24 05:35:29;;;;;;;;;;;19.80;45.60;;;;;;5058784;28;19920;-54
2024/01/24 05:37:56;;;;;;;;;;;19.70;45.50;;;;;;5058426;28;19920;-54
2024/01/24 05:40:23;;;;;;;;;;;19.80;45.60;;;;;;5058532;28;19921;-51
2024/01/24 05:42:49;;;;;;;;;;;19.70;45.50;;;;;;5076380;28;19924;-54
2024/01/24 05:45:16;;;;;;;;;;;19.80;45.60;;;;;;5056305;28;19921;-55
2024/01/24 05:47:43;;;;;;;;;;;19.80;45.60;;;;;;5058013;28;19920;-57
2024/01/24 05:50:11;;;;;;;;;;;19.80;45.60;;;;;;5073954;28;20308;-52
2024/01/24 05:52:39;;;;;;;;;;;19.80;45.60;;;;;;5059089;28;19921;-54
2024/01/24 05:55:06;;;;;;;;;;;19.80;45.60;;;;;;5058177;28;19987;-55
2024/01/24 05:57:33;;;;;;;;;;;19.80;45.60;;;;;;5058285;28;19921;-55
2024/01/24 06:00:00;;;;;;;;;;;19.80;45.60;;;;;;5061130;28;19969;-54
2024/01/24 06:02:27;;;;;;;;;;;19.80;46.20;;;;;;5053776;28;19920;-54
2024/01/24 06:04:54;;;;;;;;;;;19.80;45.60;;;;;;5057774;28;19921;-54
2024/01/24 06:07:20;;;;;;;;;;;19.80;45.60;;;;;;5053210;28;19970;-53
2024/01/24 06:09:49;;;;;;;;;;;19.80;45.60;;;;;;5049270;28;19927;-54
2024/01/24 06:12:16;;;;;;;;;;;19.80;45.60;;;;;;5050626;28;20007;-53
2024/01/24 06:14:42;;;;;;;;;;;19.80;45.60;;;;;;5072074;28;19921;-54
2024/01/24 06:17:09;;;;;;;;;;;19.80;45.60;;;;;;5054260;28;19921;-52
2024/01/24 06:19:36;;;;;;;;;;;19.80;45.60;;;;;;5050490;28;19921;-54
2024/01/24 06:22:04;;;;;;;;;;;19.80;45.60;;;;;;5053413;28;19940;-56
2024/01/24 06:24:32;;;;;;;;;;;19.80;45.60;;;;;;5048640;28;19971;-58
2024/01/24 06:27:00;;;;;;;;;;;19.70;45.60;;;;;;5048775;28;19921;-58
2024/01/24 06:29:27;;;;;;;;;;;19.80;45.70;;;;;;5071680;28;19962;-53
2024/01/24 06:31:54;;;;;;;;;;;19.80;45.60;;;;;;5042074;28;19921;-53
2024/01/24 06:34:21;;;;;;;;;;;19.80;45.60;;;;;;5033668;28;19928;-56
2024/01/24 06:36:49;;;;;;;;;;;19.80;45.70;;;;;;5068062;28;20011;-56
2024/01/24 06:39:18;;;;;;;;;;;19.80;45.60;;;;;;5070544;28;19928;-54
2024/01/24 06:41:45;;;;;;;;;;;19.70;45.50;;;;;;5091202;28;19952;-57
2024/01/24 06:44:13;;;;;;;;;;;19.80;45.60;;;;;;5089351;28;19921;-56
2024/01/24 06:46:42;;;;;;;;;;;19.80;45.70;;;;;;5050761;28;19924;-56
2024/01/24 06:49:10;;;;;;;;;;;19.70;45.50;;;;;;5062263;28;19921;-56
2024/01/24 06:51:37;;;;;;;;;;;19.80;45.60;;;;;;5048667;28;19920;-56
2024/01/24 06:54:04;;;;;;;;;;;19.80;45.60;;;;;;5054004;28;19927;-55
2024/01/24 06:56:31;;;;;;;;;;;19.80;45.60;;;;;;5054484;28;19924;-56
2024/01/24 06:58:57;;;;;;;;;;;19.80;45.70;;;;;;5051317;28;19947;-56
2024/01/24 07:01:26;;;;;;;;;;;19.80;45.60;;;;;;5044891;28;19920;-56
2024/01/24 07:03:53;;;;;;;;;;;19.80;45.70;;;;;;5074428;28;19920;-55
2024/01/24 07:06:20;;;;;;;;;;;19.80;45.70;;;;;;5064994;28;19920;-55
2024/01/24 07:08:46;;;;;;;;;;;19.80;45.70;;;;;;5068643;28;19924;-57
2024/01/24 07:11:13;;;;;;;;;;;19.80;45.70;;;;;;5069178;28;19920;-57
2024/01/24 07:13:40;;;;;;;;;;;19.80;45.70;;;;;;5052158;28;19927;-57
2024/01/24 07:16:07;;;;;;;;;;;19.80;45.60;;;;;;5047292;28;19970;-56
2024/01/24 07:18:36;;;;;;;;;;;19.80;45.70;;;;;;5051996;28;19921;-57
2024/01/24 07:21:06;;;;;;;;;;;19.80;45.70;;;;;;5058776;28;19920;-58
2024/01/24 07:23:33;;;;;;;;;;;19.80;45.70;;;;;;5068697;28;20023;-57
2024/01/24 07:25:59;;;;;;;;;;;19.80;45.70;;;;;;5070154;28;19920;-55
2024/01/24 07:28:29;;;;;;;;;;;19.80;45.70;;;;;;5053129;28;19921;-55
2024/01/24 07:30:56;;;;;;;;;;;19.80;45.70;;;;;;5054461;28;20007;-57
2024/01/24 07:33:22;;;;;;;;;;;19.70;45.60;;;;;;5045601;28;19932;-57
2024/01/24 07:35:51;;;;;;;;;;;19.80;45.60;;;;;;5070115;28;19920;-55
2024/01/24 07:38:18;;;;;;;;;;;19.80;45.70;;;;;;5052495;28;19927;-55
2024/01/24 07:40:45;;;;;;;;;;;19.80;45.70;;;;;;5066544;28;19929;-52
2024/01/24 07:43:12;;;;;;;;;;;19.80;45.70;;;;;;5053349;28;20409;-52
2024/01/24 07:45:39;;;;;;;;;;;19.70;44.90;;;;;;5074815;28;19970;-50
2024/01/24 07:48:07;;;;;;;;;;;19.70;44.10;;;;;;5056802;28;20015;-50
2024/01/24 07:50:34;;;;;;;;;;;19.60;43.80;;;;;;5063012;28;20020;-54
2024/01/24 07:53:03;;;;;;;;;;;19.60;43.50;;;;;;5056884;28;19929;-52
2024/01/24 07:55:33;;;;;;;;;;;19.50;43.40;;;;;;5064155;28;19926;-48
2024/01/24 07:57:59;;;;;;;;;;;19.40;43.70;;;;;;5054976;28;19954;-52
2024/01/24 08:00:26;;;;;;;;;;;19.40;44.10;;;;;;5053212;28;19970;-52
2024/01/24 08:02:53;;;;;;;;;;;19.40;44.20;;;;;;5056431;28;20023;-53
2024/01/24 08:05:22;;;;;;;;;;;19.40;44.30;;;;;;5055490;28;19920;-55
2024/01/24 08:07:48;;;;;;;;;;;19.40;44.40;;;;;;5053814;28;19956;-54
2024/01/24 08:10:17;;;;;;;;;;;19.40;44.50;;;;;;5054298;28;19928;-54
2024/01/24 08:12:44;;;;;;;;;;;19.40;44.60;;;;;;5073672;28;19967;-55
2024/01/24 08:15:11;;;;;;;;;;;19.40;44.50;;;;;;5073674;28;20022;-52
2024/01/24 08:17:38;;;;;;;;;;;19.40;44.60;;;;;;5055606;28;19971;-56
2024/01/24 08:20:08;;;;;;;;;;;19.50;44.60;;;;;;5073633;28;19948;-53
2024/01/24 08:22:35;;;;;;;;;;;19.40;44.60;;;;;;5055944;28;19924;-50
2024/01/24 08:25:02;;;;;;;;;;;19.50;44.60;;;;;;5073193;28;19939;-52
2024/01/24 08:27:30;;;;;;;;;;;19.50;44.60;;;;;;5055790;28;19925;-50
2024/01/24 08:29:59;;;;;;;;;;;19.50;44.60;;;;;;5071803;28;19924;-56
2024/01/24 08:32:26;;;;;;;;;;;19.50;44.70;;;;;;5069955;28;20082;-50
2024/01/24 08:34:52;;;;;;;;;;;19.50;44.70;;;;;;5069221;28;19951;-51
2024/01/24 08:37:20;;;;;;;;;;;19.50;44.80;;;;;;5064877;28;19920;-52
2024/01/24 08:39:47;;;;;;;;;;;19.60;44.90;;;;;;5052754;28;20011;-54
2024/01/24 08:42:14;;;;;;;;;;;19.60;44.90;;;;;;5054262;28;19982;-55
2024/01/24 08:44:42;;;;;;;;;;;19.60;44.90;;;;;;5071570;28;19920;-53
2024/01/24 08:47:09;;;;;;;;;;;19.60;44.90;;;;;;5052417;28;19963;-54
2024/01/24 08:49:36;;;;;;;;;;;19.60;45.00;;;;;;5049717;28;19927;-55
2024/01/24 08:52:03;;;;;;;;;;;19.60;45.00;;;;;;5063354;28;19936;-53
2024/01/24 08:54:30;;;;;;;;;;;19.70;45.10;;;;;;5054154;28;20608;-55
2024/01/24 08:56:57;;;;;;;;;;;19.70;45.10;;;;;;5044770;28;19971;-53
2024/01/24 08:59:24;;;;;;;;;;;19.70;45.10;;;;;;5050453;28;20443;-53
2024/01/24 09:01:55;;;;;;;;;;;19.70;45.10;;;;;;5052286;28;20312;-53
2024/01/24 09:04:21;;;;;;;;;;;19.70;45.10;;;;;;5070390;28;19924;-55
2024/01/24 09:06:49;;;;;;;;;;;19.70;45.20;;;;;;5051125;28;19921;-55
2024/01/24 09:09:15;;;;;;;;;;;19.70;45.20;;;;;;5046248;28;19967;-55
2024/01/24 09:11:42;;;;;;;;;;;19.80;45.30;;;;;;5052000;28;19972;-56
2024/01/24 09:14:09;;;;;;;;;;;19.80;45.40;;;;;;5066065;28;20015;-55
2024/01/24 09:16:39;;;;;;;;;;;19.80;45.40;;;;;;5054355;28;19921;-56
2024/01/24 09:19:07;;;;;;;;;;;19.80;45.40;;;;;;5051973;28;19935;-55
2024/01/24 09:21:34;;;;;;;;;;;19.80;45.40;;;;;;5046568;28;19974;-56
2024/01/24 09:24:01;;;;;;;;;;;19.80;45.40;;;;;;5067481;28;19932;-53
2024/01/24 09:26:27;;;;;;;;;;;19.80;45.40;;;;;;5067569;28;19957;-56
2024/01/24 09:28:54;;;;;;;;;;;19.80;45.40;;;;;;5040328;28;19925;-51
2024/01/24 09:31:23;;;;;;;;;;;19.80;45.40;;;;;;5072194;28;19978;-52
2024/01/24 09:33:51;;;;;;;;;;;19.80;45.40;;;;;;5069625;28;19959;-53
2024/01/24 09:36:19;;;;;;;;;;;19.80;45.40;;;;;;5072326;28;20010;-55
2024/01/24 09:38:46;;;;;;;;;;;19.80;45.40;;;;;;5050429;28;20007;-53
2024/01/24 09:41:15;;;;;;;;;;;19.80;45.40;;;;;;5050005;28;19970;-56
2024/01/24 09:43:42;;;;;;;;;;;19.90;45.50;;;;;;5051334;28;19938;-57
2024/01/24 09:46:09;;;;;;;;;;;19.90;45.60;;;;;;5050290;28;19925;-54
2024/01/24 09:48:38;;;;;;;;;;;19.90;45.60;;;;;;5052374;28;19925;-53
2024/01/24 09:51:05;;;;;;;;;;;19.90;45.60;;;;;;5053097;28;19921;-53
2024/01/24 09:53:33;;;;;;;;;;;19.90;45.50;;;;;;5054801;28;19920;-50
2024/01/24 09:56:00;;;;;;;;;;;19.90;45.60;;;;;;5071583;28;19927;-53
2024/01/24 09:58:27;;;;;;;;;;;19.90;45.60;;;;;;5054089;28;19920;-57
2024/01/24 10:00:54;;;;;;;;;;;19.90;45.60;;;;;;5071759;28;19927;-55
2024/01/24 10:03:21;;;;;;;;;;;19.90;45.60;;;;;;5053378;28;19920;-56
2024/01/24 10:05:48;;;;;;;;;;;19.90;45.60;;;;;;5050907;28;19992;-54
2024/01/24 10:08:15;;;;;;;;;;;19.90;45.60;;;;;;5054270;28;19928;-56
2024/01/24 10:10:45;;;;;;;;;;;19.90;45.60;;;;;;5071113;28;19930;-53
2024/01/24 10:13:12;;;;;;;;;;;20.00;45.70;;;;;;5052212;28;20285;-54
2024/01/24 10:15:39;;;;;;;;;;;20.00;45.70;;;;;;5053998;28;19993;-56
2024/01/24 10:18:06;;;;;;;;;;;20.00;45.80;;;;;;5069555;28;19991;-54
2024/01/24 10:20:33;;;;;;;;;;;20.00;45.70;;;;;;5051069;28;19978;-56
2024/01/24 10:23:00;;;;;;;;;;;20.00;45.70;;;;;;5071457;28;19921;-57
2024/01/24 10:25:26;;;;;;;;;;;20.00;45.70;;;;;;5071005;28;20208;-57
2024/01/24 10:27:56;;;;;;;;;;;20.00;45.70;;;;;;5053671;28;19936;-56
2024/01/24 10:30:23;;;;;;;;;;;20.00;45.70;;;;;;5053187;28;19927;-56
2024/01/24 10:32:50;;;;;;;;;;;20.00;45.70;;;;;;5054080;28;19925;-51
2024/01/24 10:35:20;;;;;;;;;;;20.00;45.70;;;;;;5053480;28;19924;-55
2024/01/24 10:37:46;;;;;;;;;;;20.00;45.70;;;;;;5051872;28;19927;-56
2024/01/24 10:40:14;;;;;;;;;;;20.00;45.70;;;;;;5053032;28;20278;-57
2024/01/24 10:42:42;;;;;;;;;;;20.00;45.70;;;;;;5070544;28;19967;-55
2024/01/24 10:45:11;;;;;;;;;;;20.00;45.80;;;;;;5053277;28;19927;-57
2024/01/24 10:47:40;;;;;;;;;;;20.00;45.70;;;;;;5046521;28;19921;-51
2024/01/24 10:50:09;;;;;;;;;;;20.00;45.70;;;;;;5068637;28;20043;-55
2024/01/24 10:52:36;;;;;;;;;;;20.00;45.70;;;;;;5053574;28;19920;-51
2024/01/24 10:55:03;;;;;;;;;;;20.00;45.70;;;;;;5068922;28;19920;-54
2024/01/24 10:57:30;;;;;;;;;;;20.00;45.70;;;;;;5040952;28;19927;-51
2024/01/24 10:59:57;;;;;;;;;;;20.00;45.70;;;;;;5054813;28;19921;-56
2024/01/24 11:02:26;;;;;;;;;;;20.00;45.70;;;;;;5053241;28;19932;-55
2024/01/24 11:04:52;;;;;;;;;;;20.00;45.70;;;;;;5071363;28;20015;-55
2024/01/24 11:07:20;;;;;;;;;;;20.00;45.80;;;;;;5050561;28;19940;-57
2024/01/24 11:09:53;;;;;;;;;;;20.10;46.40;;;;;;5040548;28;19921;-55
2024/01/24 11:12:19;;;;;;;;;;;20.10;45.80;;;;;;5052303;28;20325;-56
2024/01/24 11:14:46;;;;;;;;;;;20.10;45.80;;;;;;5050316;28;19920;-52
2024/01/24 11:17:13;;;;;;;;;;;20.10;45.80;;;;;;5053969;28;19924;-57
2024/01/24 11:19:42;;;;;;;;;;;20.10;45.80;;;;;;5053308;28;19928;-56
2024/01/24 11:22:09;;;;;;;;;;;20.10;45.80;;;;;;5052995;28;19927;-56
2024/01/24 11:24:47;;;;;;;;;;;20.10;45.80;;;;;;5067039;28;19931;-55
2024/01/24 11:27:24;;;;;;;;;;;20.10;45.80;;;;;;5061534;28;19936;-55
2024/01/24 11:29:51;;;;;;;;;;;20.10;45.80;;;;;;5071045;28;19974;-56
2024/01/24 11:32:32;;;;;;;;;;;20.10;45.80;;;;;;5060621;28;19924;-53
2024/01/24 11:35:14;;;;;;;;;;;20.10;45.80;;;;;;5069633;28;19920;-57
2024/01/24 11:37:43;;;;;;;;;;;20.10;45.80;;;;;;5048484;28;19920;-55
2024/01/24 11:40:11;;;;;;;;;;;20.10;45.80;;;;;;5040224;28;19920;-53
2024/01/24 11:42:42;;;;;;;;;;;20.10;45.80;;;;;;5075993;28;19921;-55
2024/01/24 11:45:16;;;;;;;;;;;20.10;45.80;;;;;;5070768;28;19950;-54
2024/01/24 11:47:43;;;;;;;;;;;20.10;45.70;;;;;;5052635;28;19920;-56
2024/01/24 11:50:11;;;;;;;;;;;20.10;45.70;;;;;;5049817;28;19925;-56
2024/01/24 11:52:38;;;;;;;;;;;20.10;45.70;;;;;;5055055;28;20453;-55
2024/01/24 11:55:07;;;;;;;;;;;20.10;46.30;;;;;;5066360;28;19976;-55
2024/01/24 11:57:34;;;;;;;;;;;20.10;45.70;;;;;;5047803;28;19921;-55
2024/01/24 12:00:01;;;;;;;;;;;20.10;45.70;;;;;;5050709;28;19921;-56
2024/01/24 12:02:28;;;;;;;;;;;20.10;45.70;;;;;;5050039;28;19920;-52
2024/01/24 12:04:54;;;;;;;;;;;20.10;45.70;;;;;;5065923;28;19924;-54
2024/01/24 12:07:21;;;;;;;;;;;20.10;45.70;;;;;;5052386;28;19970;-54
2024/01/24 12:09:50;;;;;;;;;;;20.10;45.70;;;;;;5069559;28;20077;-54
2024/01/24 12:12:18;;;;;;;;;;;20.10;45.70;;;;;;5056032;28;19927;-59
2024/01/24 12:14:45;;;;;;;;;;;20.10;45.70;;;;;;5054752;28;19925;-49
2024/01/24 12:17:12;;;;;;;;;;;20.10;46.10;;;;;;5043416;28;20015;-52
2024/01/24 12:19:40;;;;;;;;;;;20.00;45.80;;;;;;5051177;28;19921;-50
2024/01/24 12:22:08;;;;;;;;;;;20.00;45.20;;;;;;5053802;28;19926;-55
2024/01/24 12:24:37;;;;;;;;;;;20.00;44.70;;;;;;5048398;28;19974;-54
2024/01/24 12:27:04;;;;;;;;;;;20.00;44.40;;;;;;5054853;28;19989;-49
2024/01/24 12:29:38;;;;;;;;;;;19.90;44.00;;;;;;5052871;28;19925;-56
2024/01/24 12:32:06;;;;;;;;;;;19.90;44.20;;;;;;5055593;28;19928;-57
2024/01/24 12:34:33;;;;;;;;;;;19.80;44.30;;;;;;5072972;28;19920;-54
2024/01/24 12:37:00;;;;;;;;;;;19.80;44.40;;;;;;5056845;28;20353;-56
2024/01/24 12:39:27;;;;;;;;;;;19.80;44.50;;;;;;5072234;28;19921;-58
2024/01/24 12:41:54;;;;;;;;;;;19.80;44.60;;;;;;5055442;28;19925;-57
2024/01/24 12:44:21;;;;;;;;;;;19.80;44.70;;;;;;5064611;28;19927;-57
2024/01/24 12:46:50;;;;;;;;;;;19.80;44.80;;;;;;5058142;28;19974;-57
2024/01/24 12:49:17;;;;;;;;;;;19.80;44.80;;;;;;5057392;28;19962;-55
2024/01/24 12:51:44;;;;;;;;;;;19.80;44.80;;;;;;5053688;28;19924;-56
2024/01/24 12:54:11;;;;;;;;;;;19.80;44.80;;;;;;5072259;28;19924;-57
2024/01/24 12:56:38;;;;;;;;;;;19.80;44.80;;;;;;5057955;28;19921;-55
2024/01/24 12:59:05;;;;;;;;;;;19.80;44.90;;;;;;5072716;28;19925;-56
2024/01/24 13:01:31;;;;;;;;;;;19.80;44.90;;;;;;5072483;28;19921;-57
2024/01/24 13:03:59;;;;;;;;;;;19.80;44.90;;;;;;5072296;28;19921;-55
2024/01/24 13:06:27;;;;;;;;;;;19.80;44.90;;;;;;5065629;28;19920;-56
2024/01/24 13:08:53;;;;;;;;;;;19.80;44.90;;;;;;5072489;28;19920;-56
2024/01/24 13:11:20;;;;;;;;;;;19.80;44.90;;;;;;5051018;28;19920;-57
2024/01/24 13:13:47;;;;;;;;;;;19.90;45.00;;;;;;5072323;28;19920;-55
2024/01/24 13:16:13;;;;;;;;;;;19.90;45.00;;;;;;5069171;28;19932;-57
2024/01/24 13:18:40;;;;;;;;;;;19.90;45.00;;;;;;5065549;28;19920;-57
2024/01/24 13:21:08;;;;;;;;;;;19.90;45.00;;;;;;5054320;28;19931;-56
2024/01/24 13:23:35;;;;;;;;;;;19.90;45.60;;;;;;5071607;28;19925;-55
2024/01/24 13:26:02;;;;;;;;;;;19.90;45.00;;;;;;5053208;28;19920;-54
2024/01/24 13:28:29;;;;;;;;;;;19.90;45.00;;;;;;5049599;28;19921;-57
2024/01/24 13:30:56;;;;;;;;;;;19.90;45.10;;;;;;5073727;28;19928;-55
2024/01/24 13:33:22;;;;;;;;;;;19.90;45.10;;;;;;5057201;28;19920;-56
2024/01/24 13:35:49;;;;;;;;;;;20.00;45.10;;;;;;5050567;28;19920;-56
2024/01/24 13:38:17;;;;;;;;;;;19.90;45.10;;;;;;5070905;28;19936;-56
2024/01/24 13:40:44;;;;;;;;;;;20.00;45.10;;;;;;5052715;28;19979;-57
2024/01/24 13:43:12;;;;;;;;;;;19.90;45.00;;;;;;5055841;28;19920;-52
2024/01/24 13:45:38;;;;;;;;;;;19.90;45.10;;;;;;5067028;28;20019;-57
2024/01/24 13:48:06;;;;;;;;;;;20.00;45.20;;;;;;5070014;28;19921;-55
2024/01/24 13:50:35;;;;;;;;;;;20.00;45.10;;;;;;5077035;28;20358;-54
2024/01/24 13:53:02;;;;;;;;;;;20.00;45.10;;;;;;5051204;28;19933;-53
2024/01/24 13:55:31;;;;;;;;;;;20.00;45.10;;;;;;5067391;28;19920;-56
2024/01/24 13:57:59;;;;;;;;;;;20.00;45.10;;;;;;5053526;28;19931;-56
2024/01/24 14:00:27;;;;;;;;;;;20.00;45.10;;;;;;5056197;28;19924;-57
2024/01/24 14:02:54;;;;;;;;;;;20.00;45.10;;;;;;5071115;28;20382;-55
2024/01/24 14:05:20;;;;;;;;;;;20.00;45.10;;;;;;5071185;28;19924;-55
2024/01/24 14:07:47;;;;;;;;;;;20.00;45.10;;;;;;5057992;28;19928;-54
2024/01/24 14:10:14;;;;;;;;;;;20.00;45.10;;;;;;5069520;28;19931;-56
2024/01/24 14:12:42;;;;;;;;;;;20.00;45.10;;;;;;5055720;28;19927;-54
2024/01/24 14:15:09;;;;;;;;;;;20.00;45.10;;;;;;5071233;28;19927;-57
2024/01/24 14:17:36;;;;;;;;;;;20.00;45.10;;;;;;5068464;28;19924;-56